Tenterden, United Kingdom
Current Conditions -  °F | °C
As of 1:50 PM on Wednesday 28 Jan 2015 (Local Time) from EGMD Reporting Station
Scattered Clouds Scattered Clouds  
Wind Chill: 39°   Ceiling: Unl
Heat Index: 46°   Visibility: 6mi
Dew Point: 45°   Wind: 22mph
Humidity: 93%   Direction: 280°W
Pressure: 29.53"   Gusts: NA
Location:  51.07°N, 0.69°E
Report Text: EGMD 281350Z 28019KT 9999 FEW006 SCT025 08/07 Q1000
Loading
Personal Weather Stations






























Interactive Weather Map New forecast layout! Learn more

10-Day Weather Forecast

Advertisements
Track Severe Weather on mobile